Time;durP1;ratioP1;P1;durP2;ratioP2;P2;SDS_P1;SDS_P2;PMS_P1;PMS_P2;Temp;Humidity;BMP_temperature;BMP_pressure;BME280_temperature;BME280_humidity;BME280_pressure;Samples;Min_cycle;Max_cycle;Signal;HPM_P1;HPM_P2
2021/12/31 00:01:57;;;;;;;11.80;2.60;;;13.00;99.90;;;;;;4940031;28;20047;-79
2021/12/31 00:04:23;;;;;;;8.07;2.45;;;13.10;99.90;;;;;;4939623;28;20046;-79
2021/12/31 00:06:49;;;;;;;12.50;2.60;;;13.00;99.90;;;;;;4956109;28;20046;-79
2021/12/31 00:09:14;;;;;;;11.13;2.92;;;13.00;99.90;;;;;;4939291;28;20050;-82
2021/12/31 00:11:40;;;;;;;8.90;2.70;;;13.10;99.90;;;;;;4955689;28;20043;-79
2021/12/31 00:14:07;;;;;;;16.52;2.88;;;13.10;99.90;;;;;;4937970;28;20050;-78
2021/12/31 00:16:32;;;;;;;13.68;3.38;;;13.10;99.90;;;;;;4953275;28;20097;-79
2021/12/31 00:18:58;;;;;;;9.85;2.58;;;13.10;99.90;;;;;;4932167;29;20401;-79
2021/12/31 00:21:24;;;;;;;7.28;2.20;;;13.10;99.90;;;;;;4936016;29;20137;-78
2021/12/31 00:23:50;;;;;;;10.80;2.17;;;13.20;99.90;;;;;;4920450;29;20051;-79
2021/12/31 00:26:16;;;;;;;11.05;2.58;;;13.10;99.90;;;;;;4947755;28;20496;-83
2021/12/31 00:28:42;;;;;;;8.45;3.03;;;13.10;99.90;;;;;;4937231;28;20047;-81
2021/12/31 00:31:07;;;;;;;10.65;2.35;;;13.10;99.90;;;;;;4955733;28;20051;-78
2021/12/31 00:33:33;;;;;;;10.65;2.25;;;13.10;99.90;;;;;;4938621;28;20057;-78
2021/12/31 00:35:59;;;;;;;7.10;2.10;;;13.10;99.90;;;;;;4955726;28;20038;-77
2021/12/31 00:38:24;;;;;;;10.82;2.25;;;13.10;99.90;;;;;;4954812;28;20062;-79
2021/12/31 00:40:50;;;;;;;11.60;2.47;;;13.10;99.90;;;;;;4961113;28;20054;-78
2021/12/31 00:43:16;;;;;;;12.13;2.40;;;13.10;99.90;;;;;;4971286;28;20105;-79
2021/12/31 00:45:43;;;;;;;11.00;3.00;;;13.10;99.90;;;;;;4937624;28;20124;-78
2021/12/31 00:48:12;;;;;;;9.43;2.67;;;13.00;99.90;;;;;;4954445;28;20051;-81
2021/12/31 00:50:38;;;;;;;10.75;2.92;;;13.00;99.90;;;;;;4970852;28;20054;-79
2021/12/31 00:53:05;;;;;;;10.95;2.65;;;13.00;99.90;;;;;;4971083;28;20097;-77
2021/12/31 00:55:31;;;;;;;11.80;2.88;;;13.00;99.90;;;;;;4970280;28;20447;-77
2021/12/31 00:57:57;;;;;;;9.00;2.85;;;13.00;99.90;;;;;;4971087;28;20069;-77
2021/12/31 01:00:23;;;;;;;8.85;2.72;;;13.10;99.90;;;;;;4968987;28;20492;-78
2021/12/31 01:02:48;;;;;;;14.02;2.92;;;13.10;99.90;;;;;;4971301;28;20093;-77
2021/12/31 01:05:15;;;;;;;13.32;3.15;;;13.10;99.90;;;;;;4971530;28;20047;-78
2021/12/31 01:07:42;;;;;;;11.57;3.05;;;13.10;99.90;;;;;;4970903;28;20058;-77
2021/12/31 01:10:12;;;;;;;12.50;3.38;;;13.10;99.90;;;;;;4971040;28;20054;-77
2021/12/31 01:12:37;;;;;;;13.00;3.40;;;13.10;99.90;;;;;;4970296;28;20047;-76
2021/12/31 01:15:09;;;;;;;9.15;2.67;;;13.10;99.90;;;;;;4951815;28;20042;-77
2021/12/31 01:20:20;;;;;;;12.38;2.67;;;13.20;99.90;;;;;;4970322;28;20130;-78
2021/12/31 01:22:46;;;;;;;6.68;2.55;;;13.20;99.90;;;;;;4970531;28;20064;-78
2021/12/31 01:25:12;;;;;;;9.02;2.90;;;13.20;99.90;;;;;;4970835;28;20050;-79
2021/12/31 01:27:38;;;;;;;;;;;13.20;99.90;;;;;;4970771;28;20089;-77
2021/12/31 01:30:06;;;;;;;8.02;2.30;;;13.20;99.90;;;;;;4953431;28;19933;-77
2021/12/31 01:32:33;;;;;;;12.25;3.20;;;13.20;99.90;;;;;;4954224;28;20055;-79
2021/12/31 01:34:59;;;;;;;7.88;2.58;;;13.20;99.90;;;;;;4970787;28;20058;-77
2021/12/31 01:37:25;;;;;;;9.55;2.60;;;13.20;99.90;;;;;;4970205;28;20035;-82
2021/12/31 01:39:51;;;;;;;9.00;2.40;;;13.20;99.90;;;;;;4953988;28;20488;-77
2021/12/31 01:42:22;;;;;;;11.30;2.47;;;13.20;99.90;;;;;;4938852;28;20066;-78
2021/12/31 01:44:56;;;;;;;11.90;3.13;;;13.20;99.90;;;;;;4950452;28;20053;-78
2021/12/31 01:47:26;;;;;;;11.27;2.92;;;13.20;99.90;;;;;;4954979;28;20068;-77
2021/12/31 01:49:58;;;;;;;7.07;2.58;;;13.20;99.90;;;;;;4939291;28;20077;-77
2021/12/31 01:52:24;;;;;;;10.15;2.95;;;13.20;99.90;;;;;;4939732;28;20082;-76
2021/12/31 01:54:50;;;;;;;10.85;3.17;;;13.80;99.90;;;;;;4953306;28;20051;-77
2021/12/31 01:57:18;;;;;;;8.88;2.83;;;13.20;99.90;;;;;;4954697;28;20125;-76
2021/12/31 01:59:44;;;;;;;10.73;2.97;;;13.20;99.90;;;;;;4935857;28;20055;-79
2021/12/31 02:02:10;;;;;;;11.77;3.20;;;13.20;99.90;;;;;;4922926;28;20511;-77
2021/12/31 02:04:40;;;;;;;7.40;3.00;;;13.20;99.90;;;;;;4953653;28;20047;-78
2021/12/31 02:07:06;;;;;;;8.40;3.42;;;13.20;99.90;;;;;;4954779;28;20065;-76
2021/12/31 02:09:37;;;;;;;;;;;13.20;99.90;;;;;;4954054;28;20035;-77
2021/12/31 02:12:04;;;;;;;10.10;3.58;;;13.30;99.90;;;;;;4954475;28;19922;-78
2021/12/31 02:14:31;;;;;;;8.27;3.53;;;13.30;99.90;;;;;;4936502;28;20050;-77
2021/12/31 02:16:56;;;;;;;11.40;3.40;;;13.30;99.90;;;;;;4954532;28;20062;-77
2021/12/31 02:19:29;;;;;;;9.82;3.65;;;13.20;99.90;;;;;;4938286;28;20051;-77
2021/12/31 02:21:55;;;;;;;8.20;4.30;;;13.20;99.90;;;;;;4954603;28;20069;-77
2021/12/31 02:24:22;;;;;;;8.20;3.45;;;13.20;99.90;;;;;;4953132;28;20519;-78
2021/12/31 02:26:49;;;;;;;8.65;3.58;;;13.30;99.90;;;;;;4937335;28;20046;-79
2021/12/31 02:29:15;;;;;;;9.00;3.80;;;13.30;99.90;;;;;;4936441;28;20078;-77
2021/12/31 02:31:40;;;;;;;12.77;4.30;;;13.30;99.90;;;;;;4954627;28;20089;-77
2021/12/31 02:34:06;;;;;;;11.20;3.90;;;13.30;99.90;;;;;;4922690;29;20047;-78
2021/12/31 02:36:32;;;;;;;14.23;4.78;;;13.30;99.90;;;;;;4945575;28;20086;-79
2021/12/31 02:38:57;;;;;;;9.13;4.07;;;13.30;99.90;;;;;;4941357;28;20057;-77
2021/12/31 02:41:23;;;;;;;9.30;3.80;;;13.30;99.90;;;;;;4967645;28;20077;-78
2021/12/31 02:43:49;;;;;;;8.73;3.15;;;13.30;99.90;;;;;;4970978;28;20082;-80
2021/12/31 02:46:15;;;;;;;12.60;3.72;;;13.30;99.90;;;;;;4973096;28;20047;-76
2021/12/31 02:48:40;;;;;;;10.52;3.70;;;13.30;99.90;;;;;;4973271;28;20046;-77
2021/12/31 02:51:06;;;;;;;7.32;3.55;;;13.40;99.90;;;;;;4973529;28;20078;-77
2021/12/31 02:53:37;;;;;;;9.20;3.28;;;13.40;99.90;;;;;;4972844;28;20058;-77
2021/12/31 02:56:07;;;;;;;6.75;3.67;;;13.40;99.90;;;;;;4957682;28;20058;-77
2021/12/31 02:58:34;;;;;;;8.88;3.65;;;13.40;99.90;;;;;;4971891;28;20069;-77
2021/12/31 03:01:00;;;;;;;8.93;3.97;;;13.50;99.90;;;;;;4956277;28;20058;-77
2021/12/31 03:03:28;;;;;;;13.32;3.83;;;13.50;99.90;;;;;;4957449;28;20105;-76
2021/12/31 03:05:54;;;;;;;8.65;3.95;;;13.50;99.90;;;;;;4973045;28;20054;-77
2021/12/31 03:08:28;;;;;;;6.82;3.60;;;13.50;99.90;;;;;;4973454;28;20050;-77
2021/12/31 03:10:56;;;;;;;8.95;4.00;;;13.50;99.90;;;;;;4972587;28;20090;-76
2021/12/31 03:13:23;;;;;;;7.00;3.70;;;13.50;99.90;;;;;;4972950;28;20077;-79
2021/12/31 03:15:50;;;;;;;7.57;4.28;;;13.50;99.90;;;;;;4955454;28;20061;-77
2021/12/31 03:18:18;;;;;;;9.27;4.10;;;13.60;99.90;;;;;;4973169;28;20109;-77
2021/12/31 03:20:57;;;;;;;10.02;4.07;;;13.50;99.90;;;;;;4972534;28;20055;-77
2021/12/31 03:23:24;;;;;;;8.57;3.75;;;13.60;99.90;;;;;;4972930;28;20050;-78
2021/12/31 03:25:50;;;;;;;10.75;4.28;;;13.60;99.90;;;;;;4956245;28;20480;-77
2021/12/31 03:28:16;;;;;;;;;;;13.60;99.90;;;;;;4973389;28;20050;-76
2021/12/31 03:30:41;;;;;;;8.15;4.18;;;13.60;99.90;;;;;;4954873;28;19928;-76
2021/12/31 03:33:07;;;;;;;9.05;3.80;;;13.50;99.90;;;;;;4973114;28;20077;-77
2021/12/31 03:35:33;;;;;;;8.55;3.67;;;13.50;99.90;;;;;;4973027;28;20058;-77
2021/12/31 03:37:58;;;;;;;8.45;4.03;;;13.50;99.90;;;;;;4971779;28;20061;-77
2021/12/31 03:40:24;;;;;;;7.40;4.00;;;13.50;99.90;;;;;;4971919;28;20070;-77
2021/12/31 03:42:50;;;;;;;7.97;4.63;;;13.50;99.90;;;;;;4971721;28;20436;-77
2021/12/31 03:45:16;;;;;;;7.43;4.05;;;13.60;99.90;;;;;;4955112;28;20051;-77
2021/12/31 03:47:41;;;;;;;6.50;3.15;;;13.60;99.90;;;;;;4954671;28;20047;-80
2021/12/31 03:50:07;;;;;;;5.07;3.10;;;13.60;99.90;;;;;;4972592;28;20054;-77
2021/12/31 03:52:38;;;;;;;8.43;3.95;;;13.60;99.90;;;;;;4956651;28;20114;-77
2021/12/31 03:55:08;;;;;;;11.10;3.67;;;13.60;99.90;;;;;;4971558;28;20050;-79
2021/12/31 03:57:34;;;;;;;11.10;3.72;;;13.60;99.90;;;;;;4956422;28;20042;-76
2021/12/31 03:59:59;;;;;;;;;;;13.60;99.90;;;;;;4970701;28;20039;-76
2021/12/31 04:02:25;;;;;;;7.15;4.07;;;13.60;99.90;;;;;;4972694;28;19926;-76
2021/12/31 04:04:51;;;;;;;9.70;4.53;;;13.60;99.90;;;;;;4940037;28;20054;-76
2021/12/31 04:07:17;;;;;;;5.78;3.45;;;13.60;99.90;;;;;;4972426;28;20054;-76
2021/12/31 04:09:42;;;;;;;9.65;4.10;;;13.60;99.90;;;;;;4970615;28;20047;-76
2021/12/31 04:12:08;;;;;;;6.78;3.88;;;13.60;99.90;;;;;;4956234;28;20047;-77
2021/12/31 04:14:34;;;;;;;8.07;4.03;;;13.60;99.90;;;;;;4970070;28;20058;-76
2021/12/31 04:17:00;;;;;;;7.30;3.90;;;13.60;99.90;;;;;;4971606;28;20089;-77
2021/12/31 04:19:26;;;;;;;10.93;4.07;;;13.60;99.90;;;;;;4972837;28;20515;-76
2021/12/31 04:21:51;;;;;;;7.38;3.63;;;13.60;99.90;;;;;;4971649;28;20043;-77
2021/12/31 04:27:12;;;;;;;6.63;3.47;;;13.60;99.90;;;;;;4959275;28;20551;-76
2021/12/31 04:29:39;;;;;;;8.82;4.20;;;13.60;99.90;;;;;;4943723;28;20050;-79
2021/12/31 04:32:06;;;;;;;8.52;4.05;;;13.50;99.90;;;;;;4971681;28;20051;-76
2021/12/31 04:34:32;;;;;;;10.07;4.50;;;13.50;99.90;;;;;;4972007;28;20045;-77
2021/12/31 04:36:58;;;;;;;10.13;3.95;;;13.60;99.90;;;;;;4954586;28;20057;-76
2021/12/31 04:39:24;;;;;;;;;;;13.50;99.90;;;;;;4970226;28;20054;-77
2021/12/31 04:41:50;;;;;;;9.07;4.43;;;13.50;99.90;;;;;;4970785;28;19929;-76
2021/12/31 04:44:15;;;;;;;8.68;3.97;;;13.50;99.90;;;;;;4969393;28;20050;-76
2021/12/31 04:46:41;;;;;;;7.80;4.03;;;13.50;99.90;;;;;;4971171;28;20492;-81
2021/12/31 04:49:07;;;;;;;9.20;3.90;;;13.50;99.90;;;;;;4971231;28;20528;-77
2021/12/31 04:51:33;;;;;;;7.05;3.55;;;13.50;99.90;;;;;;4954378;28;20492;-78
2021/12/31 04:54:00;;;;;;;11.02;4.22;;;13.40;99.90;;;;;;4970443;28;20046;-77
2021/12/31 04:56:25;;;;;;;;;;;13.40;99.90;;;;;;4971141;28;20457;-77
2021/12/31 04:58:51;;;;;;;6.97;3.55;;;13.40;99.90;;;;;;4969114;28;20008;-76
2021/12/31 05:01:21;;;;;;;5.93;3.05;;;13.40;99.90;;;;;;4955164;28;20507;-78
2021/12/31 05:03:47;;;;;;;5.93;3.10;;;13.40;99.90;;;;;;4969304;28;20046;-76
2021/12/31 05:06:13;;;;;;;8.75;3.70;;;13.40;99.90;;;;;;4954558;28;20090;-76
2021/12/31 05:08:39;;;;;;;5.25;2.60;;;13.40;99.90;;;;;;4970884;28;20086;-77
2021/12/31 05:11:04;;;;;;;5.53;2.95;;;13.40;99.90;;;;;;4970671;28;20054;-76
2021/12/31 05:13:30;;;;;;;5.90;3.20;;;13.30;99.90;;;;;;4986027;28;20046;-77
2021/12/31 05:16:01;;;;;;;6.68;2.78;;;13.30;99.90;;;;;;4953873;28;20050;-77
2021/12/31 05:18:27;;;;;;;7.15;3.03;;;13.30;99.90;;;;;;4971077;28;20130;-78
2021/12/31 05:20:53;;;;;;;6.85;2.83;;;13.30;99.90;;;;;;4954450;28;20547;-76
2021/12/31 05:23:18;;;;;;;8.55;2.50;;;13.30;99.90;;;;;;4971057;28;20106;-76
2021/12/31 05:25:44;;;;;;;7.78;2.53;;;13.30;99.90;;;;;;4970336;28;20145;-82
2021/12/31 05:28:10;;;;;;;4.03;2.58;;;13.30;99.90;;;;;;4970248;28;20050;-75
2021/12/31 05:30:35;;;;;;;10.55;3.08;;;13.30;99.90;;;;;;4969274;28;20053;-76
2021/12/31 05:33:01;;;;;;;5.03;2.60;;;13.30;99.90;;;;;;4970385;28;20635;-77
2021/12/31 05:35:27;;;;;;;7.15;2.85;;;13.20;99.90;;;;;;4970832;28;20089;-77
2021/12/31 05:37:53;;;;;;;8.18;2.67;;;13.20;99.90;;;;;;4954354;28;20125;-77
2021/12/31 05:40:19;;;;;;;6.20;2.80;;;13.20;99.90;;;;;;4954204;28;20066;-79
2021/12/31 05:42:44;;;;;;;;;;;13.20;99.90;;;;;;4955005;28;20140;-82
2021/12/31 05:45:11;;;;;;;7.97;3.10;;;13.10;99.90;;;;;;4969227;28;20355;-79
2021/12/31 05:47:38;;;;;;;6.20;2.72;;;13.10;99.90;;;;;;4970959;28;20043;-77
2021/12/31 05:50:07;;;;;;;5.90;2.67;;;13.10;99.90;;;;;;4970128;28;20193;-76
2021/12/31 05:52:34;;;;;;;9.52;2.60;;;13.10;99.90;;;;;;4970328;28;20058;-76
2021/12/31 05:54:59;;;;;;;;;;;13.00;99.90;;;;;;4954214;28;20058;-76
2021/12/31 05:57:25;;;;;;;5.53;2.55;;;13.00;99.90;;;;;;4970837;28;20393;-76
2021/12/31 05:59:51;;;;;;;5.55;2.50;;;12.90;99.90;;;;;;4968105;28;20058;-76
2021/12/31 06:02:16;;;;;;;4.95;2.47;;;13.00;99.90;;;;;;4969710;28;20138;-77
2021/12/31 06:04:42;;;;;;;5.63;2.25;;;13.00;99.90;;;;;;4971541;28;20050;-76
2021/12/31 06:07:08;;;;;;;8.18;2.58;;;13.00;99.90;;;;;;4971839;28;20049;-76
2021/12/31 06:09:34;;;;;;;5.25;2.15;;;13.00;99.90;;;;;;4957893;28;20042;-76
2021/12/31 06:12:00;;;;;;;;;;;13.00;99.90;;;;;;4957945;28;20169;-76
2021/12/31 06:14:26;;;;;;;5.55;2.10;;;13.00;99.90;;;;;;4971999;28;19922;-76
2021/12/31 06:16:52;;;;;;;8.60;3.05;;;12.90;99.90;;;;;;4973906;28;20053;-76
2021/12/31 06:19:18;;;;;;;4.47;2.05;;;12.90;99.90;;;;;;4974198;28;20051;-76
2021/12/31 06:21:46;;;;;;;4.93;2.70;;;12.90;99.90;;;;;;4957644;28;20035;-78
2021/12/31 06:24:12;;;;;;;7.65;2.22;;;12.90;99.90;;;;;;4972929;28;20058;-77
2021/12/31 06:26:37;;;;;;;;;;;12.90;99.90;;;;;;4974665;28;20121;-76
2021/12/31 06:29:04;;;;;;;6.25;2.47;;;12.90;99.90;;;;;;4955496;28;19926;-76
2021/12/31 06:31:30;;;;;;;6.35;2.30;;;12.90;99.90;;;;;;4957640;28;20082;-78
2021/12/31 06:33:56;;;;;;;;;;;12.90;99.90;;;;;;4973687;28;20563;-78
2021/12/31 06:36:22;;;;;;;9.82;2.83;;;12.90;99.90;;;;;;4969982;28;19922;-76
2021/12/31 06:38:50;;;;;;;5.40;2.38;;;12.90;99.90;;;;;;4971490;28;20069;-82
2021/12/31 06:41:16;;;;;;;6.22;2.28;;;12.90;99.90;;;;;;4957412;28;20062;-76
2021/12/31 06:43:43;;;;;;;8.15;2.45;;;12.90;99.90;;;;;;4971975;28;20058;-81
2021/12/31 06:46:08;;;;;;;10.93;2.75;;;12.90;99.90;;;;;;4972637;28;20043;-76
2021/12/31 06:48:34;;;;;;;6.85;2.40;;;13.00;99.90;;;;;;4973160;28;20054;-78
2021/12/31 06:51:00;;;;;;;5.32;2.38;;;12.90;99.90;;;;;;4973305;28;20047;-76
2021/12/31 06:53:26;;;;;;;5.18;2.30;;;12.90;99.90;;;;;;4973322;28;20050;-77
2021/12/31 06:55:52;;;;;;;5.63;2.75;;;12.90;99.90;;;;;;4972044;28;20058;-76
2021/12/31 06:58:17;;;;;;;10.18;3.20;;;12.90;99.90;;;;;;4965568;28;20051;-76
2021/12/31 07:00:43;;;;;;;6.53;2.58;;;12.80;99.90;;;;;;4952994;28;20051;-76
2021/12/31 07:03:11;;;;;;;8.27;2.33;;;12.80;99.90;;;;;;4973038;28;20043;-76
2021/12/31 07:05:39;;;;;;;6.25;2.20;;;12.70;99.90;;;;;;4973137;28;20062;-79
2021/12/31 07:08:05;;;;;;;7.10;2.40;;;12.80;99.90;;;;;;4972935;28;20116;-76
2021/12/31 07:10:31;;;;;;;6.97;2.45;;;12.70;99.90;;;;;;4973122;28;20054;-76
2021/12/31 07:13:04;;;;;;;8.00;2.72;;;12.80;99.90;;;;;;4972331;28;20586;-76
2021/12/31 07:15:30;;;;;;;7.80;2.70;;;12.80;99.90;;;;;;4971650;28;20054;-77
2021/12/31 07:17:56;;;;;;;9.60;2.65;;;12.80;99.90;;;;;;4971928;28;20051;-76
2021/12/31 07:20:22;;;;;;;6.10;2.63;;;12.80;99.90;;;;;;4968301;28;20043;-78
2021/12/31 07:22:48;;;;;;;5.72;2.70;;;12.80;99.90;;;;;;4963319;28;20059;-77
2021/12/31 07:25:14;;;;;;;8.93;2.40;;;12.80;99.90;;;;;;4952985;29;20082;-75
2021/12/31 07:27:39;;;;;;;;;;;12.80;99.90;;;;;;4954196;29;20051;-79
2021/12/31 07:30:06;;;;;;;6.43;2.58;;;12.80;99.90;;;;;;4964886;28;19932;-75
2021/12/31 07:32:38;;;;;;;5.40;2.60;;;12.80;99.90;;;;;;4957060;28;20076;-76
2021/12/31 07:35:05;;;;;;;5.93;2.72;;;12.70;99.90;;;;;;4956024;28;20133;-76
2021/12/31 07:37:31;;;;;;;6.47;2.72;;;12.70;99.90;;;;;;4956527;28;20055;-77
2021/12/31 07:40:02;;;;;;;6.32;2.53;;;12.60;99.90;;;;;;4955205;28;20042;-76
2021/12/31 07:42:28;;;;;;;9.60;3.50;;;12.60;99.90;;;;;;4955103;28;20559;-79
2021/12/31 07:44:54;;;;;;;4.93;2.35;;;12.50;99.90;;;;;;4971394;28;20046;-83
2021/12/31 07:47:19;;;;;;;5.55;2.80;;;12.50;99.90;;;;;;4956299;28;20133;-76
2021/12/31 07:49:45;;;;;;;7.82;2.60;;;12.50;99.90;;;;;;4956028;28;20450;-76
2021/12/31 07:52:11;;;;;;;7.50;3.00;;;12.40;99.90;;;;;;4956209;28;20130;-76
2021/12/31 07:54:36;;;;;;;7.28;3.00;;;12.40;99.90;;;;;;4956155;28;20439;-76
2021/12/31 07:57:02;;;;;;;6.40;2.65;;;12.40;99.90;;;;;;4955588;28;20134;-76
2021/12/31 07:59:28;;;;;;;5.93;2.47;;;12.30;99.90;;;;;;4954437;28;20147;-76
2021/12/31 08:01:53;;;;;;;5.50;2.83;;;12.30;99.90;;;;;;4939686;28;20463;-84
2021/12/31 08:04:19;;;;;;;6.90;2.67;;;12.30;99.90;;;;;;4940262;28;20121;-76
2021/12/31 08:06:45;;;;;;;5.88;2.90;;;12.30;99.90;;;;;;4956239;28;20057;-76
2021/12/31 08:09:10;;;;;;;8.20;3.00;;;12.30;99.90;;;;;;4972232;28;20069;-76
2021/12/31 08:11:37;;;;;;;6.63;2.80;;;12.30;99.90;;;;;;4956215;28;20480;-77
2021/12/31 08:14:04;;;;;;;10.05;2.88;;;12.30;99.90;;;;;;4970873;28;20059;-76
2021/12/31 08:16:30;;;;;;;6.40;2.70;;;12.30;99.90;;;;;;4955261;28;20134;-76
2021/12/31 08:18:55;;;;;;;7.55;2.67;;;12.30;99.90;;;;;;4938621;28;20121;-82
2021/12/31 08:21:21;;;;;;;7.60;3.10;;;12.40;99.90;;;;;;4954416;28;20054;-75
2021/12/31 08:23:47;;;;;;;8.05;2.83;;;12.40;99.90;;;;;;4951644;28;20117;-76
2021/12/31 08:26:14;;;;;;;6.50;2.47;;;12.40;99.90;;;;;;4942020;28;20054;-77
2021/12/31 08:28:40;;;;;;;6.05;2.85;;;12.50;99.90;;;;;;4945600;28;20056;-77
2021/12/31 08:31:06;;;;;;;;;;;12.50;99.90;;;;;;4949079;28;20047;-76
2021/12/31 08:33:31;;;;;;;10.60;2.70;;;12.50;99.90;;;;;;4939844;28;20394;-76
2021/12/31 08:35:57;;;;;;;5.82;2.55;;;12.60;99.90;;;;;;4938466;28;20041;-83
2021/12/31 08:38:23;;;;;;;6.30;2.60;;;12.60;99.90;;;;;;4932699;28;20055;-80
2021/12/31 08:40:49;;;;;;;6.22;2.55;;;12.60;99.90;;;;;;4951132;28;20051;-75
2021/12/31 08:43:15;;;;;;;7.95;2.70;;;12.60;99.90;;;;;;4938117;28;20059;-75
2021/12/31 08:45:41;;;;;;;10.15;2.80;;;12.60;99.90;;;;;;4920412;28;20477;-76
2021/12/31 08:48:06;;;;;;;7.75;3.00;;;12.60;99.90;;;;;;4954436;28;20377;-75
2021/12/31 08:50:33;;;;;;;7.38;2.60;;;12.70;99.90;;;;;;4954356;28;20452;-76
2021/12/31 08:52:59;;;;;;;6.00;2.60;;;12.70;99.90;;;;;;4954590;28;20125;-82
2021/12/31 08:55:25;;;;;;;9.98;3.20;;;12.70;99.90;;;;;;4954421;28;20543;-76
2021/12/31 08:57:51;;;;;;;10.45;2.40;;;12.70;99.90;;;;;;4955044;28;20503;-76
2021/12/31 09:00:17;;;;;;;7.20;2.85;;;12.60;99.90;;;;;;4952271;28;20396;-75
2021/12/31 09:02:45;;;;;;;;;;;12.60;99.90;;;;;;4923569;28;20054;-76
2021/12/31 09:05:12;;;;;;;7.13;2.90;;;12.60;99.90;;;;;;4954357;28;19929;-76
2021/12/31 09:07:37;;;;;;;7.70;2.60;;;12.70;99.90;;;;;;4955057;28;20078;-76
2021/12/31 09:10:04;;;;;;;8.40;3.35;;;12.70;99.90;;;;;;4953879;28;20496;-80
2021/12/31 09:12:30;;;;;;;7.47;2.72;;;12.70;99.90;;;;;;4954611;28;20476;-78
2021/12/31 09:14:56;;;;;;;6.25;2.85;;;12.70;99.90;;;;;;4952413;28;20057;-75
2021/12/31 09:17:24;;;;;;;8.23;3.50;;;12.80;99.90;;;;;;4941214;28;20093;-75
2021/12/31 09:19:50;;;;;;;4.55;2.47;;;12.70;99.90;;;;;;4947780;28;20061;-75
2021/12/31 09:22:16;;;;;;;;;;;12.70;99.90;;;;;;4936230;28;20093;-76
2021/12/31 09:24:42;;;;;;;6.75;3.40;;;12.70;99.90;;;;;;4933765;28;19934;-76
2021/12/31 09:27:08;;;;;;;6.63;3.25;;;12.70;99.90;;;;;;4949351;28;20108;-76
2021/12/31 09:29:34;;;;;;;7.18;2.55;;;12.70;99.90;;;;;;4937201;28;20133;-76
2021/12/31 09:32:00;;;;;;;6.43;2.78;;;12.70;99.90;;;;;;4934780;28;20107;-77
2021/12/31 09:34:25;;;;;;;7.95;3.00;;;12.70;99.90;;;;;;4937674;28;20055;-75
2021/12/31 09:36:51;;;;;;;5.35;2.70;;;12.70;99.90;;;;;;4934497;28;20047;-75
2021/12/31 09:39:17;;;;;;;6.97;2.83;;;12.70;99.90;;;;;;4935454;28;20694;-76
2021/12/31 09:41:43;;;;;;;8.07;3.00;;;12.80;99.90;;;;;;4944749;28;20822;-75
2021/12/31 09:44:14;;;;;;;9.50;3.35;;;12.80;99.90;;;;;;4964136;28;20059;-77
2021/12/31 09:46:40;;;;;;;6.70;2.72;;;12.80;99.90;;;;;;4951928;28;20190;-75
2021/12/31 09:49:06;;;;;;;6.28;2.47;;;12.90;99.90;;;;;;4950269;28;20039;-80
2021/12/31 09:51:33;;;;;;;8.07;3.08;;;12.90;99.90;;;;;;4949003;28;20054;-75
2021/12/31 09:54:00;;;;;;;7.95;3.15;;;12.90;99.90;;;;;;4964038;28;20130;-75
2021/12/31 09:56:27;;;;;;;6.55;2.75;;;12.80;99.90;;;;;;4953799;28;20051;-78
2021/12/31 09:58:53;;;;;;;6.50;3.03;;;12.80;99.90;;;;;;4949199;28;20050;-75
2021/12/31 10:01:19;;;;;;;6.05;2.90;;;12.90;99.90;;;;;;4948551;28;20125;-75
2021/12/31 10:03:55;;;;;;;;;;;12.90;99.90;;;;;;4968788;28;20177;-76
2021/12/31 10:06:21;;;;;;;8.35;3.10;;;12.80;99.90;;;;;;4969220;28;19933;-78
2021/12/31 10:08:48;;;;;;;6.55;2.97;;;12.80;99.90;;;;;;4970110;28;20055;-75
2021/12/31 10:11:20;;;;;;;5.60;2.63;;;12.80;99.90;;;;;;4969564;28;20488;-77
2021/12/31 10:13:45;;;;;;;7.25;3.00;;;12.80;99.90;;;;;;4968401;28;20456;-79
2021/12/31 10:16:30;;;;;;;10.00;3.15;;;12.80;99.90;;;;;;4969672;28;20055;-76
2021/12/31 10:19:18;;;;;;;7.10;3.38;;;12.90;99.90;;;;;;4970354;28;20484;-77
2021/12/31 10:21:46;;;;;;;7.55;3.35;;;12.90;99.90;;;;;;4954112;28;20054;-75
2021/12/31 10:24:25;;;;;;;9.70;3.85;;;12.90;99.90;;;;;;4969276;28;20464;-77
2021/12/31 10:27:01;;;;;;;8.75;3.58;;;12.90;99.90;;;;;;4970038;28;20519;-76
2021/12/31 10:29:27;;;;;;;7.13;3.22;;;12.90;99.90;;;;;;4967740;28;20373;-76
2021/12/31 10:31:53;;;;;;;6.38;3.05;;;12.90;99.90;;;;;;4971511;28;20053;-75
2021/12/31 10:34:36;;;;;;;11.10;3.83;;;12.90;99.90;;;;;;4969352;28;20038;-76
2021/12/31 10:37:25;;;;;;;11.90;3.10;;;12.80;99.90;;;;;;4970393;28;20117;-76
2021/12/31 10:40:00;;;;;;;7.53;3.10;;;12.80;99.90;;;;;;4969732;28;20110;-76
2021/12/31 10:42:32;;;;;;;8.00;3.58;;;12.80;99.90;;;;;;4969894;28;20073;-76
2021/12/31 10:45:00;;;;;;;7.45;2.97;;;12.80;99.90;;;;;;4968456;28;20062;-76
2021/12/31 10:47:37;;;;;;;8.48;2.88;;;12.80;99.90;;;;;;4969830;28;20058;-77
2021/12/31 10:50:03;;;;;;;6.32;3.20;;;12.80;99.90;;;;;;4966192;28;20093;-76
2021/12/31 10:52:37;;;;;;;6.07;3.20;;;12.80;99.90;;;;;;4967997;28;20078;-78
2021/12/31 10:55:30;;;;;;;10.85;3.97;;;12.80;99.90;;;;;;4970655;28;20090;-75
2021/12/31 10:58:04;;;;;;;8.25;3.38;;;12.80;99.90;;;;;;4966853;28;20067;-76
2021/12/31 11:00:41;;;;;;;8.13;3.97;;;12.80;99.90;;;;;;4971305;28;20039;-77
2021/12/31 11:03:08;;;;;;;7.68;3.75;;;12.90;99.90;;;;;;4972828;28;20061;-76
2021/12/31 11:05:34;;;;;;;9.40;3.88;;;12.90;99.90;;;;;;4972433;28;20149;-77
2021/12/31 11:08:00;;;;;;;;;;;12.90;99.90;;;;;;4957691;28;20127;-76
2021/12/31 11:10:30;;;;;;;9.73;3.97;;;12.90;99.90;;;;;;4972528;28;19988;-77
2021/12/31 11:12:57;;;;;;;9.85;3.97;;;12.90;99.90;;;;;;4962338;28;20050;-76
2021/12/31 11:15:22;;;;;;;9.75;4.35;;;12.90;99.90;;;;;;4934490;28;20082;-75
2021/12/31 11:17:54;;;;;;;10.38;4.63;;;13.00;99.90;;;;;;4971060;28;20144;-75
2021/12/31 11:20:22;;;;;;;10.98;4.85;;;13.00;99.90;;;;;;4968035;28;20043;-75
2021/12/31 11:22:48;;;;;;;8.13;4.13;;;13.00;99.90;;;;;;4965820;28;20039;-76
2021/12/31 11:25:17;;;;;;;9.32;4.20;;;13.00;99.90;;;;;;4970115;28;20058;-77
2021/12/31 11:27:47;;;;;;;9.68;4.72;;;13.10;99.90;;;;;;4972458;28;20138;-78
2021/12/31 11:30:37;;;;;;;9.13;4.32;;;13.10;99.90;;;;;;4965566;28;20046;-76
2021/12/31 11:33:17;;;;;;;8.68;4.05;;;13.10;99.90;;;;;;4961230;28;20043;-77
2021/12/31 11:35:56;;;;;;;9.77;4.50;;;13.00;99.90;;;;;;4963301;28;20058;-77
2021/12/31 11:38:22;;;;;;;9.30;4.20;;;13.10;99.90;;;;;;4951893;28;20515;-76
2021/12/31 11:41:01;;;;;;;7.35;3.90;;;13.00;99.90;;;;;;4961092;28;20051;-78
2021/12/31 11:43:28;;;;;;;9.07;3.85;;;13.00;99.90;;;;;;4958320;28;20062;-79
2021/12/31 11:46:12;;;;;;;9.98;4.70;;;13.00;99.90;;;;;;4963071;28;20145;-76
2021/12/31 11:48:45;;;;;;;9.02;3.67;;;13.00;99.90;;;;;;4944941;28;20618;-76
2021/12/31 11:51:16;;;;;;;8.70;4.13;;;13.00;99.90;;;;;;4962283;28;20042;-76
2021/12/31 11:54:00;;;;;;;8.07;4.10;;;13.00;99.90;;;;;;4958979;28;20110;-77
2021/12/31 11:56:34;;;;;;;9.98;4.70;;;12.90;99.90;;;;;;4960142;28;20062;-77
2021/12/31 11:59:09;;;;;;;9.23;4.40;;;12.90;99.90;;;;;;4957346;28;20054;-77
2021/12/31 12:01:38;;;;;;;9.90;4.53;;;12.90;99.90;;;;;;4949951;28;20059;-77
2021/12/31 12:04:27;;;;;;;9.02;4.65;;;12.80;99.90;;;;;;4948594;28;20043;-76
2021/12/31 12:07:31;;;;;;;9.90;4.38;;;12.80;99.90;;;;;;4952445;28;20079;-77
2021/12/31 12:09:57;;;;;;;12.07;4.35;;;12.80;99.90;;;;;;4951250;28;20157;-77
2021/12/31 12:12:28;;;;;;;11.82;4.13;;;12.80;99.90;;;;;;4950140;28;20126;-77
2021/12/31 12:15:02;;;;;;;10.40;4.72;;;12.80;99.90;;;;;;4949083;28;20543;-78
2021/12/31 12:17:28;;;;;;;8.80;4.47;;;12.80;99.90;;;;;;4966116;28;20516;-76
2021/12/31 12:20:05;;;;;;;10.75;3.80;;;12.80;99.90;;;;;;4952181;28;20098;-77
2021/12/31 12:22:49;;;;;;;10.52;4.13;;;12.80;99.90;;;;;;4967012;28;20051;-76
2021/12/31 12:25:16;;;;;;;8.88;4.63;;;12.80;99.90;;;;;;4954556;28;20145;-78
2021/12/31 12:27:43;;;;;;;11.43;4.50;;;12.80;99.90;;;;;;4961520;28;20944;-76
2021/12/31 12:30:11;;;;;;;10.02;4.05;;;12.80;99.90;;;;;;4948171;28;20413;-77
2021/12/31 12:32:51;;;;;;;9.77;4.70;;;12.80;99.90;;;;;;4949718;28;20057;-76
2021/12/31 12:35:21;;;;;;;7.57;4.50;;;12.70;99.90;;;;;;4955396;28;20051;-76
2021/12/31 12:37:57;;;;;;;12.65;4.28;;;12.70;99.90;;;;;;4950397;28;20278;-75
2021/12/31 12:40:39;;;;;;;11.25;5.15;;;12.80;99.90;;;;;;4948076;28;20181;-82
2021/12/31 12:43:18;;;;;;;12.60;5.78;;;12.70;99.90;;;;;;4948282;28;20067;-79
2021/12/31 12:45:53;;;;;;;13.18;5.93;;;12.60;99.90;;;;;;4931144;28;20055;-76
2021/12/31 12:48:30;;;;;;;20.30;7.38;;;12.50;99.90;;;;;;4940105;28;20369;-78
2021/12/31 12:50:57;;;;;;;15.65;6.32;;;12.30;99.90;;;;;;4944216;28;20066;-80
2021/12/31 12:53:28;;;;;;;17.10;7.32;;;12.20;99.90;;;;;;4948051;28;20067;-83
2021/12/31 12:56:14;;;;;;;14.10;7.35;;;12.00;99.90;;;;;;4952441;28;20051;-79
2021/12/31 12:58:51;;;;;;;16.35;7.30;;;12.00;99.90;;;;;;4936750;28;20061;-81